createdAt,value
2019-06-20T00:01:03.414Z,20.20
2019-06-20T00:03:32.939Z,20.20
2019-06-20T00:06:02.571Z,20.10
2019-06-20T00:08:32.050Z,20.10
2019-06-20T00:11:01.522Z,20.00
2019-06-20T00:13:31.013Z,20.00
2019-06-20T00:16:00.498Z,20.00
2019-06-20T00:18:29.964Z,19.90
2019-06-20T00:20:59.270Z,19.90
2019-06-20T00:23:28.772Z,19.90
2019-06-20T00:25:58.253Z,19.80
2019-06-20T00:28:27.875Z,19.80
2019-06-20T00:30:57.427Z,19.80
2019-06-20T00:33:26.897Z,19.70
2019-06-20T00:35:56.489Z,19.70
2019-06-20T00:38:26.046Z,19.70
2019-06-20T00:40:55.525Z,19.70
2019-06-20T00:43:25.016Z,19.60
2019-06-20T00:45:54.497Z,19.60
2019-06-20T00:48:24.002Z,19.60
2019-06-20T00:50:53.516Z,19.60
2019-06-20T00:53:22.962Z,19.50
2019-06-20T00:55:52.526Z,19.50
2019-06-20T00:58:21.960Z,19.40
2019-06-20T01:00:51.450Z,19.40
2019-06-20T01:03:20.945Z,19.40
2019-06-20T01:05:50.414Z,19.50
2019-06-20T01:08:19.919Z,19.50
2019-06-20T01:10:49.373Z,19.40
2019-06-20T01:13:32.662Z,19.40
2019-06-20T01:15:50.070Z,19.40
2019-06-20T01:18:19.530Z,19.40
2019-06-20T01:20:49.115Z,19.40
2019-06-20T01:23:18.628Z,19.40
2019-06-20T01:25:48.373Z,19.40
2019-06-20T01:28:17.829Z,19.40
2019-06-20T01:30:47.933Z,19.40
2019-06-20T01:33:17.440Z,19.40
2019-06-20T01:35:48.483Z,19.40
2019-06-20T01:38:17.984Z,19.40
2019-06-20T01:40:47.495Z,19.40
2019-06-20T01:43:16.968Z,19.40
2019-06-20T01:45:47.932Z,19.40
2019-06-20T01:48:17.339Z,19.40
2019-06-20T01:50:46.862Z,19.40
2019-06-20T01:53:16.295Z,19.40
2019-06-20T01:55:45.756Z,19.40
2019-06-20T01:58:15.298Z,19.50
2019-06-20T02:00:50.216Z,19.50
2019-06-20T02:03:20.876Z,19.50
2019-06-20T02:05:50.576Z,19.50
2019-06-20T02:08:22.692Z,19.50
2019-06-20T02:10:52.280Z,19.50
2019-06-20T02:13:21.936Z,19.50
2019-06-20T02:15:51.479Z,19.50
2019-06-20T02:18:21.060Z,19.50
2019-06-20T02:20:56.413Z,19.50
2019-06-20T02:23:26.115Z,19.50
2019-06-20T02:25:55.725Z,19.50
2019-06-20T02:28:25.643Z,19.40
2019-06-20T02:30:55.327Z,19.40
2019-06-20T02:33:24.769Z,19.40
2019-06-20T02:35:54.257Z,19.40
2019-06-20T02:38:23.773Z,19.40
2019-06-20T02:40:53.202Z,19.40
2019-06-20T02:43:23.410Z,19.40
2019-06-20T02:45:53.159Z,19.40
2019-06-20T02:48:22.643Z,19.30
2019-06-20T02:50:52.187Z,19.30
2019-06-20T02:53:21.676Z,19.40
2019-06-20T02:55:51.227Z,19.40
2019-06-20T02:58:20.832Z,19.30
2019-06-20T03:00:58.997Z,19.30
2019-06-20T03:03:29.906Z,19.40
2019-06-20T03:05:59.539Z,19.40
2019-06-20T03:08:29.613Z,19.40
2019-06-20T03:10:59.174Z,19.40
2019-06-20T03:13:28.823Z,19.40
2019-06-20T03:15:58.360Z,19.40
2019-06-20T03:18:27.893Z,19.40
2019-06-20T03:20:57.361Z,19.40
2019-06-20T03:23:27.049Z,19.40
2019-06-20T03:25:56.677Z,19.40
2019-06-20T03:28:26.158Z,19.40
2019-06-20T03:30:55.703Z,19.50
2019-06-20T03:33:25.184Z,19.50
2019-06-20T03:35:54.700Z,19.50
2019-06-20T03:38:24.228Z,19.60
2019-06-20T03:40:53.711Z,19.60
2019-06-20T03:43:23.293Z,19.60
2019-06-20T03:45:55.616Z,19.60
2019-06-20T03:48:25.072Z,19.60
2019-06-20T03:50:54.574Z,19.60
2019-06-20T03:53:24.084Z,19.60
2019-06-20T03:55:53.579Z,19.70
2019-06-20T03:58:23.064Z,19.70
2019-06-20T04:00:52.555Z,19.70
2019-06-20T04:03:22.051Z,19.70
2019-06-20T04:05:51.527Z,19.70
2019-06-20T04:08:21.050Z,19.70
2019-06-20T04:10:53.412Z,19.80
2019-06-20T04:13:22.900Z,19.80
2019-06-20T04:15:52.407Z,19.80
2019-06-20T04:18:21.905Z,19.80
2019-06-20T04:20:51.423Z,19.80
2019-06-20T04:25:50.903Z,19.90
2019-06-20T04:28:20.383Z,19.90
2019-06-20T04:30:49.907Z,19.90
2019-06-20T04:33:19.495Z,19.90
2019-06-20T04:35:48.966Z,19.90
2019-06-20T04:38:18.451Z,19.90
2019-06-20T04:40:47.953Z,19.90
2019-06-20T04:43:17.435Z,19.90
2019-06-20T04:45:48.665Z,19.90
2019-06-20T04:48:18.132Z,19.90
2019-06-20T04:50:47.604Z,19.90
2019-06-20T04:53:17.132Z,19.90
2019-06-20T04:55:46.586Z,19.90
2019-06-20T04:58:16.122Z,19.90
2019-06-20T05:00:45.656Z,19.90
2019-06-20T05:03:15.167Z,19.90
2019-06-20T05:05:44.716Z,19.90
2019-06-20T05:08:14.248Z,19.90
2019-06-20T05:10:43.916Z,19.80
2019-06-20T05:13:13.390Z,19.80
2019-06-20T05:15:52.666Z,19.80
2019-06-20T05:18:14.192Z,19.80
2019-06-20T05:20:43.694Z,19.80
2019-06-20T05:23:13.194Z,19.80
2019-06-20T05:25:42.682Z,19.80
2019-06-20T05:28:12.157Z,19.80
2019-06-20T05:30:41.639Z,19.90
2019-06-20T05:33:11.171Z,19.90
2019-06-20T05:35:41.394Z,20.00
2019-06-20T05:38:10.943Z,20.00
2019-06-20T05:40:40.447Z,20.00
2019-06-20T05:43:09.971Z,20.00
2019-06-20T05:45:39.468Z,20.10
2019-06-20T05:48:08.959Z,20.10
2019-06-20T05:50:39.414Z,20.20
2019-06-20T05:53:08.899Z,20.20
2019-06-20T05:55:38.401Z,20.30
2019-06-20T05:58:08.725Z,20.30
2019-06-20T06:00:38.371Z,20.40
2019-06-20T06:03:07.926Z,20.40
2019-06-20T06:05:37.411Z,20.40
2019-06-20T06:08:06.966Z,20.40
2019-06-20T06:10:36.501Z,20.40
2019-06-20T06:13:06.526Z,20.40
2019-06-20T06:15:36.000Z,20.40
2019-06-20T06:18:05.511Z,20.40
2019-06-20T06:20:35.012Z,20.40
2019-06-20T06:23:04.843Z,20.40
2019-06-20T06:25:34.291Z,20.40
2019-06-20T06:28:03.778Z,20.40
2019-06-20T06:30:33.447Z,20.40
2019-06-20T06:33:03.032Z,20.40
2019-06-20T06:35:32.462Z,20.40
2019-06-20T06:38:01.988Z,20.40
2019-06-20T06:40:31.645Z,20.50
2019-06-20T06:43:01.206Z,20.50
2019-06-20T06:45:30.784Z,20.50
2019-06-20T06:48:00.297Z,20.60
2019-06-20T06:50:30.138Z,20.60
2019-06-20T06:52:59.662Z,20.70
2019-06-20T06:55:29.241Z,20.70
2019-06-20T06:57:58.748Z,20.70
2019-06-20T07:00:28.306Z,20.70
2019-06-20T07:02:57.780Z,20.90
2019-06-20T07:05:28.296Z,20.90
2019-06-20T07:07:57.794Z,21.00
2019-06-20T07:10:27.519Z,21.00
2019-06-20T07:12:57.005Z,21.10
2019-06-20T07:15:27.300Z,21.10
2019-06-20T07:17:56.772Z,21.10
2019-06-20T07:20:26.412Z,21.30
2019-06-20T07:22:55.938Z,21.30
2019-06-20T07:25:25.425Z,21.40
2019-06-20T07:27:54.893Z,21.40
2019-06-20T07:30:24.719Z,21.40
2019-06-20T07:32:54.264Z,21.40
2019-06-20T07:35:23.738Z,21.40
2019-06-20T07:37:53.254Z,21.30
2019-06-20T07:40:23.114Z,21.30
2019-06-20T07:42:52.513Z,21.40
2019-06-20T07:45:27.287Z,21.40
2019-06-20T07:47:57.300Z,21.50
2019-06-20T07:50:26.831Z,21.60
2019-06-20T07:53:02.006Z,21.60
2019-06-20T07:55:27.529Z,21.60
2019-06-20T07:57:57.105Z,21.60
2019-06-20T08:00:27.424Z,21.60
2019-06-20T08:02:56.947Z,21.70
2019-06-20T08:05:26.613Z,21.80
2019-06-20T08:07:56.097Z,21.90
2019-06-20T08:10:26.882Z,22.10
2019-06-20T08:12:56.376Z,22.20
2019-06-20T08:15:26.167Z,22.10
2019-06-20T08:17:55.749Z,22.20
2019-06-20T08:20:26.176Z,22.30
2019-06-20T08:22:55.698Z,22.20
2019-06-20T08:25:25.353Z,22.20
2019-06-20T08:27:56.046Z,22.10
2019-06-20T08:30:32.788Z,22.00
2019-06-20T08:33:08.719Z,21.90
2019-06-20T08:35:35.218Z,21.80
2019-06-20T08:38:07.070Z,21.70
2019-06-20T08:40:43.243Z,21.70
2019-06-20T08:43:12.799Z,21.80
2019-06-20T08:45:44.461Z,21.90
2019-06-20T08:48:14.041Z,22.10
2019-06-20T08:50:43.952Z,22.30
2019-06-20T08:53:13.425Z,22.60
2019-06-20T08:55:43.046Z,22.80
2019-06-20T08:58:12.566Z,23.10
2019-06-20T09:00:43.464Z,23.30
2019-06-20T09:03:12.972Z,23.50
2019-06-20T09:05:42.542Z,23.60
2019-06-20T09:08:12.218Z,23.70
2019-06-20T09:10:42.831Z,23.70
2019-06-20T09:13:13.591Z,23.70
2019-06-20T09:15:43.859Z,23.70
2019-06-20T09:18:13.398Z,23.70
2019-06-20T09:20:43.063Z,23.60
2019-06-20T09:23:12.526Z,23.50
2019-06-20T09:25:42.158Z,23.50
2019-06-20T09:28:11.731Z,23.30
2019-06-20T09:30:41.426Z,23.40
2019-06-20T09:33:11.014Z,23.40
2019-06-20T09:35:42.014Z,23.40
2019-06-20T09:38:11.514Z,23.20
2019-06-20T09:40:41.138Z,23.10
2019-06-20T09:43:26.824Z,22.90
2019-06-20T09:45:44.498Z,22.80
2019-06-20T09:48:13.975Z,22.70
2019-06-20T09:50:43.443Z,22.50
2019-06-20T09:53:12.968Z,22.50
2019-06-20T09:55:42.483Z,22.50
2019-06-20T09:58:11.961Z,22.60
2019-06-20T10:00:41.579Z,22.80
2019-06-20T10:03:11.080Z,23.10
2019-06-20T10:05:40.589Z,23.50
2019-06-20T10:08:10.150Z,23.90
2019-06-20T10:10:39.697Z,24.10
2019-06-20T10:13:09.220Z,24.30
2019-06-20T10:15:40.433Z,24.40
2019-06-20T10:18:10.116Z,24.50
2019-06-20T10:20:39.746Z,24.60
2019-06-20T10:23:09.306Z,24.60
2019-06-20T10:25:39.115Z,24.50
2019-06-20T10:28:08.732Z,24.50
2019-06-20T10:30:38.228Z,24.40
2019-06-20T10:33:07.927Z,24.40
2019-06-20T10:35:37.513Z,24.30
2019-06-20T10:38:07.035Z,24.20
2019-06-20T10:40:36.637Z,24.10
2019-06-20T10:43:06.427Z,24.00
2019-06-20T10:45:37.009Z,23.80
2019-06-20T10:48:07.025Z,23.80
2019-06-20T10:50:36.556Z,23.70
2019-06-20T10:53:06.401Z,23.60
2019-06-20T10:55:36.359Z,23.50
2019-06-20T10:58:06.018Z,23.50
2019-06-20T11:00:35.602Z,23.50
2019-06-20T11:03:05.679Z,23.50
2019-06-20T11:05:35.171Z,23.80
2019-06-20T11:08:05.298Z,23.80
2019-06-20T11:10:35.959Z,23.90
2019-06-20T11:13:05.656Z,23.90
2019-06-20T11:15:35.424Z,24.00
2019-06-20T11:18:05.040Z,24.00
2019-06-20T11:20:34.608Z,24.00
2019-06-20T11:23:04.085Z,24.10
2019-06-20T11:25:33.565Z,24.10
2019-06-20T11:28:03.076Z,24.20
2019-06-20T11:30:46.745Z,24.30
2019-06-20T11:33:04.841Z,24.30
2019-06-20T11:35:36.083Z,24.20
2019-06-20T11:38:06.269Z,24.00
2019-06-20T11:40:36.829Z,24.00
2019-06-20T11:43:07.081Z,23.90
2019-06-20T11:45:37.323Z,23.90
2019-06-20T11:48:08.138Z,23.90
2019-06-20T11:50:38.010Z,23.70
2019-06-20T11:53:07.586Z,23.60
2019-06-20T11:55:37.073Z,23.50
2019-06-20T11:58:06.544Z,23.40
2019-06-20T12:00:36.070Z,23.40
2019-06-20T12:03:06.275Z,23.30
2019-06-20T12:05:35.831Z,23.20
2019-06-20T12:08:05.362Z,23.20
2019-06-20T12:10:34.664Z,23.20
2019-06-20T12:13:04.199Z,23.10
2019-06-20T12:15:33.668Z,23.10
2019-06-20T12:18:03.177Z,23.10
2019-06-20T12:20:32.702Z,23.00
2019-06-20T12:23:02.239Z,23.00
2019-06-20T12:25:31.718Z,23.00
2019-06-20T12:28:01.188Z,23.00
2019-06-20T12:30:30.844Z,22.90
2019-06-20T12:33:00.344Z,22.80
2019-06-20T12:35:29.849Z,22.80
2019-06-20T12:37:59.362Z,22.80
2019-06-20T12:40:28.938Z,22.80
2019-06-20T12:42:58.411Z,22.80
2019-06-20T12:45:27.905Z,22.80
2019-06-20T12:47:57.370Z,22.80
2019-06-20T12:50:26.934Z,22.70
2019-06-20T12:52:56.429Z,22.70
2019-06-20T12:55:25.930Z,22.60
2019-06-20T12:57:55.415Z,22.60
2019-06-20T13:00:26.204Z,22.60
2019-06-20T13:02:55.880Z,22.50
2019-06-20T13:05:25.850Z,22.50
2019-06-20T13:07:55.409Z,22.50
2019-06-20T13:10:25.089Z,22.60
2019-06-20T13:12:54.539Z,22.60
2019-06-20T13:15:24.107Z,22.60
2019-06-20T13:17:53.664Z,22.70
2019-06-20T13:20:23.271Z,22.70
2019-06-20T13:22:52.804Z,22.70
2019-06-20T13:25:22.287Z,22.80
2019-06-20T13:27:51.744Z,22.90
2019-06-20T13:30:21.815Z,23.00
2019-06-20T13:32:51.295Z,23.10
2019-06-20T13:35:22.094Z,23.20
2019-06-20T13:37:51.616Z,23.30
2019-06-20T13:40:22.300Z,23.30
2019-06-20T13:42:54.602Z,23.40
2019-06-20T13:45:26.376Z,23.50
2019-06-20T13:47:56.001Z,23.60
2019-06-20T13:50:26.599Z,23.70
2019-06-20T13:52:56.161Z,23.80
2019-06-20T13:55:25.707Z,23.90
2019-06-20T13:57:55.225Z,24.00
2019-06-20T14:00:26.378Z,24.20
2019-06-20T14:02:55.874Z,24.30
2019-06-20T14:05:25.458Z,24.60
2019-06-20T14:07:55.993Z,24.70
2019-06-20T14:10:25.725Z,24.80
2019-06-20T14:12:55.237Z,25.00
2019-06-20T14:15:25.485Z,25.10
2019-06-20T14:17:54.953Z,25.30
2019-06-20T14:20:24.884Z,25.30
2019-06-20T14:22:54.671Z,25.40
2019-06-20T14:25:24.659Z,25.50
2019-06-20T14:27:54.215Z,25.50
2019-06-20T14:30:24.382Z,25.60
2019-06-20T14:32:54.218Z,25.60
2019-06-20T14:35:24.387Z,25.70
2019-06-20T14:37:55.489Z,25.70
2019-06-20T14:40:25.502Z,25.70
2019-06-20T14:42:54.982Z,25.70
2019-06-20T14:45:24.566Z,25.70
2019-06-20T14:47:55.223Z,25.60
2019-06-20T14:50:24.979Z,25.60
2019-06-20T14:52:54.525Z,25.50
2019-06-20T14:55:24.130Z,25.60
2019-06-20T14:57:54.759Z,25.50
2019-06-20T15:00:27.085Z,25.60
2019-06-20T15:02:58.666Z,25.60
2019-06-20T15:05:27.964Z,25.50
2019-06-20T15:07:57.521Z,25.40
2019-06-20T15:10:27.114Z,25.30
2019-06-20T15:12:56.773Z,25.20
2019-06-20T15:15:26.382Z,25.10
2019-06-20T15:17:58.116Z,25.00
2019-06-20T15:20:27.072Z,24.70
2019-06-20T15:22:56.861Z,24.60
2019-06-20T15:25:26.375Z,24.40
2019-06-20T15:27:57.296Z,24.10
2019-06-20T15:30:27.064Z,23.80
2019-06-20T15:33:07.469Z,23.50
2019-06-20T15:35:27.727Z,23.20
2019-06-20T15:37:57.853Z,22.70
2019-06-20T15:40:27.609Z,22.40
2019-06-20T15:42:58.804Z,22.10
2019-06-20T15:45:30.217Z,21.80
2019-06-20T15:47:59.649Z,21.60
2019-06-20T15:50:29.117Z,21.40
2019-06-20T15:52:58.555Z,21.20
2019-06-20T15:55:28.021Z,21.10
2019-06-20T15:57:57.538Z,21.00
2019-06-20T16:00:30.083Z,21.00
2019-06-20T16:03:09.364Z,20.90
2019-06-20T16:05:30.724Z,20.90
2019-06-20T16:08:00.207Z,20.90
2019-06-20T16:10:29.728Z,21.00
2019-06-20T16:12:59.244Z,21.00
2019-06-20T16:15:28.762Z,21.00
2019-06-20T16:17:58.453Z,21.00
2019-06-20T16:20:27.998Z,21.10
2019-06-20T16:22:57.459Z,21.10
2019-06-20T16:25:26.975Z,21.20
2019-06-20T16:27:56.454Z,21.30
2019-06-20T16:30:26.488Z,21.40
2019-06-20T16:32:56.522Z,21.50
2019-06-20T16:35:26.132Z,21.60
2019-06-20T16:37:55.750Z,21.70
2019-06-20T16:40:41.445Z,21.80
2019-06-20T16:43:10.994Z,21.80
2019-06-20T16:45:40.575Z,21.90
2019-06-20T16:48:10.131Z,21.90
2019-06-20T16:50:39.881Z,21.90
2019-06-20T16:53:09.416Z,21.90
2019-06-20T16:55:38.879Z,21.90
2019-06-20T16:58:08.924Z,21.90
2019-06-20T17:00:38.539Z,21.90
2019-06-20T17:03:08.070Z,21.90
2019-06-20T17:05:37.535Z,21.90
2019-06-20T17:08:07.077Z,21.90
2019-06-20T17:10:36.545Z,22.00
2019-06-20T17:13:06.168Z,22.00
2019-06-20T17:15:35.738Z,22.00
2019-06-20T17:18:05.440Z,22.00
2019-06-20T17:20:34.952Z,22.10
2019-06-20T17:23:05.082Z,22.10
2019-06-20T17:25:35.209Z,22.10
2019-06-20T17:28:04.994Z,22.10
2019-06-20T17:30:34.723Z,22.00
2019-06-20T17:33:04.348Z,22.00
2019-06-20T17:35:33.832Z,21.90
2019-06-20T17:38:03.369Z,21.90
2019-06-20T17:40:33.193Z,21.90
2019-06-20T17:43:02.715Z,21.80
2019-06-20T17:45:32.368Z,21.70
2019-06-20T17:48:01.907Z,21.60
2019-06-20T17:50:31.407Z,21.50
2019-06-20T17:53:00.904Z,21.40
2019-06-20T17:55:32.910Z,21.30
2019-06-20T17:58:02.413Z,21.20
2019-06-20T18:00:33.108Z,21.10
2019-06-20T18:03:02.654Z,21.10
2019-06-20T18:05:32.116Z,21.10
2019-06-20T18:08:14.117Z,21.10
2019-06-20T18:10:32.878Z,21.00
2019-06-20T18:13:02.359Z,21.00
2019-06-20T18:15:33.893Z,21.00
2019-06-20T18:18:03.066Z,21.00
2019-06-20T18:20:32.524Z,21.00
2019-06-20T18:23:02.015Z,21.00
2019-06-20T18:25:31.846Z,21.00
2019-06-20T18:28:01.480Z,21.00
2019-06-20T18:30:43.182Z,21.00
2019-06-20T18:33:14.741Z,21.00
2019-06-20T18:35:44.331Z,21.00
2019-06-20T18:38:13.818Z,21.10
2019-06-20T18:40:43.356Z,21.10
2019-06-20T18:43:12.845Z,21.20
2019-06-20T18:45:43.387Z,21.20
2019-06-20T18:48:12.929Z,21.20
2019-06-20T18:50:42.486Z,21.30
2019-06-20T18:53:12.017Z,21.30
2019-06-20T18:55:41.663Z,21.30
2019-06-20T18:58:11.144Z,21.30
2019-06-20T19:00:40.681Z,21.30
2019-06-20T19:03:10.228Z,21.20
2019-06-20T19:05:39.685Z,21.20
2019-06-20T19:08:09.256Z,21.20
2019-06-20T19:10:38.773Z,21.20
2019-06-20T19:13:08.326Z,21.10
2019-06-20T19:15:37.849Z,21.10
2019-06-20T19:18:07.361Z,21.00
2019-06-20T19:20:36.855Z,21.00
2019-06-20T19:23:06.307Z,20.90
2019-06-20T19:25:35.771Z,20.90
2019-06-20T19:28:05.400Z,20.80
2019-06-20T19:30:53.362Z,20.80
2019-06-20T19:33:22.866Z,20.70
2019-06-20T19:35:52.300Z,20.60
2019-06-20T19:38:21.769Z,20.50
2019-06-20T19:40:51.975Z,20.40
2019-06-20T19:43:21.513Z,20.30
2019-06-20T19:45:51.112Z,20.30
2019-06-20T19:48:20.602Z,20.20
2019-06-20T19:50:50.324Z,20.10
2019-06-20T19:53:19.859Z,20.10
2019-06-20T19:55:49.503Z,20.00
2019-06-20T19:58:18.534Z,19.90
2019-06-20T20:00:48.067Z,19.80
2019-06-20T20:03:17.614Z,19.80
2019-06-20T20:05:47.281Z,19.70
2019-06-20T20:08:17.580Z,19.60
2019-06-20T20:10:49.229Z,19.60
2019-06-20T20:13:19.194Z,19.50
2019-06-20T20:15:49.133Z,19.50
2019-06-20T20:18:18.581Z,19.40
2019-06-20T20:20:48.589Z,19.40
2019-06-20T20:23:18.233Z,19.40
2019-06-20T20:25:47.910Z,19.30
2019-06-20T20:28:17.403Z,19.20
2019-06-20T20:30:46.989Z,19.20
2019-06-20T20:33:16.492Z,19.20
2019-06-20T20:35:46.052Z,19.10
2019-06-20T20:38:15.515Z,19.10
2019-06-20T20:40:49.499Z,19.10
2019-06-20T20:43:19.044Z,19.10
2019-06-20T20:45:48.580Z,19.10
2019-06-20T20:48:18.630Z,19.10
2019-06-20T20:50:48.104Z,19.10
2019-06-20T20:53:17.583Z,19.10
2019-06-20T20:55:47.099Z,19.10
2019-06-20T20:58:16.580Z,19.00
2019-06-20T21:00:50.793Z,19.00
2019-06-20T21:03:20.338Z,19.00
2019-06-20T21:05:51.815Z,19.10
2019-06-20T21:08:21.040Z,19.00
2019-06-20T21:10:50.522Z,19.00
2019-06-20T21:13:20.114Z,19.00
2019-06-20T21:15:51.647Z,19.00
2019-06-20T21:18:23.813Z,19.00
2019-06-20T21:20:56.899Z,19.00
2019-06-20T21:23:30.673Z,19.00
2019-06-20T21:26:03.363Z,19.00
2019-06-20T21:28:36.463Z,19.00
2019-06-20T21:31:12.274Z,18.90
2019-06-20T21:33:54.154Z,18.90
2019-06-20T21:36:30.610Z,18.90
2019-06-20T21:39:04.244Z,18.80
2019-06-20T21:41:37.671Z,18.80
2019-06-20T21:44:07.206Z,18.70
2019-06-20T21:46:36.756Z,18.70
2019-06-20T21:49:10.791Z,18.60
2019-06-20T21:51:44.653Z,18.60
2019-06-20T21:54:18.275Z,18.60
2019-06-20T21:56:48.092Z,18.50
2019-06-20T21:59:17.787Z,18.40
2019-06-20T22:01:49.080Z,18.40
2019-06-20T22:04:30.007Z,18.40
2019-06-20T22:07:15.062Z,18.30
2019-06-20T22:09:49.190Z,18.20
2019-06-20T22:12:27.512Z,18.20
2019-06-20T22:14:56.958Z,18.10
2019-06-20T22:17:26.451Z,18.10
2019-06-20T22:19:55.941Z,18.00
2019-06-20T22:22:25.431Z,17.90
2019-06-20T22:24:54.897Z,17.90
2019-06-20T22:27:24.425Z,17.80
2019-06-20T22:29:53.911Z,17.70
2019-06-20T22:32:23.431Z,17.70
2019-06-20T22:34:52.984Z,17.70
2019-06-20T22:37:22.506Z,17.60
2019-06-20T22:39:51.975Z,17.50
2019-06-20T22:42:21.503Z,17.50
2019-06-20T22:44:50.995Z,17.50
2019-06-20T22:47:20.492Z,17.40
2019-06-20T22:49:50.050Z,17.40
2019-06-20T22:52:19.538Z,17.40
2019-06-20T22:54:49.032Z,17.30
2019-06-20T22:57:18.587Z,17.30
2019-06-20T22:59:48.060Z,17.30
2019-06-20T23:02:17.632Z,17.20
2019-06-20T23:04:47.131Z,17.20
2019-06-20T23:07:16.616Z,17.20
2019-06-20T23:09:46.111Z,17.20
2019-06-20T23:12:15.653Z,17.10
2019-06-20T23:14:45.178Z,17.10
2019-06-20T23:17:14.680Z,17.10
2019-06-20T23:19:44.157Z,17.00
2019-06-20T23:22:13.674Z,17.00
2019-06-20T23:24:43.167Z,16.90
2019-06-20T23:27:14.154Z,16.90
2019-06-20T23:29:43.829Z,16.90
2019-06-20T23:32:13.371Z,16.90
2019-06-20T23:34:42.865Z,16.90
2019-06-20T23:37:13.322Z,16.90
2019-06-20T23:39:43.070Z,16.90
2019-06-20T23:42:12.500Z,16.90
2019-06-20T23:44:41.986Z,16.90
2019-06-20T23:47:11.511Z,17.00
2019-06-20T23:49:41.023Z,17.00
2019-06-20T23:52:12.207Z,17.00
2019-06-20T23:54:41.669Z,17.00
2019-06-20T23:57:11.133Z,17.00
2019-06-20T23:59:40.615Z,17.00
